Time;durP1;ratioP1;P1;durP2;ratioP2;P2;SDS_P1;SDS_P2;PMS_P1;PMS_P2;Temp;Humidity;BMP_temperature;BMP_pressure;BME280_temperature;BME280_humidity;BME280_pressure;Samples;Min_cycle;Max_cycle;Signal;HPM_P1;HPM_P2
2023/10/16 00:01:26;;;;;;;6.90;6.20;;;3.60;99.90;;;;;;5060292;28;20462;-59
2023/10/16 00:03:55;;;;;;;6.27;5.67;;;3.50;99.90;;;;;;5059871;28;20488;-60
2023/10/16 00:06:23;;;;;;;6.67;5.57;;;3.50;99.90;;;;;;5059816;28;20432;-60
2023/10/16 00:08:53;;;;;;;7.40;5.90;;;3.50;99.90;;;;;;5059683;28;20699;-60
2023/10/16 00:11:24;;;;;;;7.80;6.33;;;3.50;99.90;;;;;;5059770;28;20461;-60
2023/10/16 00:13:56;;;;;;;7.00;5.67;;;3.50;99.90;;;;;;5058810;28;20455;-60
2023/10/16 00:16:23;;;;;;;7.60;6.13;;;3.50;99.90;;;;;;5059573;28;20505;-59
2023/10/16 00:18:53;;;;;;;7.63;5.50;;;3.40;99.90;;;;;;5059959;28;20880;-60
2023/10/16 00:21:20;;;;;;;6.80;6.10;;;3.30;99.90;;;;;;5059115;28;20884;-60
2023/10/16 00:23:47;;;;;;;7.03;5.57;;;3.30;99.90;;;;;;5059641;28;20502;-59
2023/10/16 00:26:19;;;;;;;6.47;5.70;;;3.30;99.90;;;;;;5059686;28;20462;-60
2023/10/16 00:29:00;;;;;;;5.90;5.10;;;3.30;99.90;;;;;;5059825;28;20437;-60
2023/10/16 00:31:32;;;;;;;5.77;5.17;;;3.20;99.90;;;;;;5059596;28;20487;-60
2023/10/16 00:33:59;;;;;;;7.90;5.73;;;3.20;99.90;;;;;;5059229;28;20466;-61
2023/10/16 00:36:26;;;;;;;6.20;5.13;;;3.20;99.90;;;;;;5059174;28;20466;-59
2023/10/16 00:38:53;;;;;;;6.30;5.17;;;3.20;99.90;;;;;;5059247;28;20463;-60
2023/10/16 00:41:25;;;;;;;7.27;5.83;;;3.20;99.90;;;;;;5059273;28;20882;-60
2023/10/16 00:43:56;;;;;;;7.23;5.57;;;3.20;99.90;;;;;;5059159;28;20554;-60
2023/10/16 00:46:32;;;;;;;5.43;4.40;;;3.10;99.90;;;;;;5059372;28;20469;-60
2023/10/16 00:49:00;;;;;;;5.87;5.20;;;3.10;99.90;;;;;;5059241;28;20462;-60
2023/10/16 00:51:28;;;;;;;7.67;5.87;;;3.10;99.90;;;;;;5058720;28;20454;-60
2023/10/16 00:53:55;;;;;;;6.90;6.10;;;3.10;99.90;;;;;;5058621;28;20478;-60
2023/10/16 00:56:27;;;;;;;6.87;5.90;;;3.10;99.90;;;;;;5058960;28;20477;-60
2023/10/16 00:58:56;;;;;;;9.30;6.73;;;3.10;99.90;;;;;;5059015;28;20484;-60
2023/10/16 01:01:25;;;;;;;6.67;5.97;;;3.10;99.90;;;;;;5058166;28;20458;-59
2023/10/16 01:03:57;;;;;;;7.63;6.27;;;3.00;99.90;;;;;;5058929;28;20997;-60
2023/10/16 01:06:36;;;;;;;6.43;5.30;;;3.00;99.90;;;;;;5059123;28;20808;-60
2023/10/16 01:09:08;;;;;;;8.33;5.70;;;2.90;99.90;;;;;;5059065;28;20494;-60
2023/10/16 01:11:37;;;;;;;6.33;5.67;;;3.00;99.90;;;;;;5058491;28;20480;-60
2023/10/16 01:14:06;;;;;;;9.30;6.17;;;2.90;99.90;;;;;;5058287;28;20459;-59
2023/10/16 01:16:34;;;;;;;6.60;6.00;;;2.90;99.90;;;;;;5058566;28;20465;-60
2023/10/16 01:19:06;;;;;;;7.03;6.37;;;2.90;99.90;;;;;;5058981;28;20795;-60
2023/10/16 01:21:33;;;;;;;7.23;5.93;;;2.90;99.90;;;;;;5058126;28;20557;-60
2023/10/16 01:24:03;;;;;;;6.70;6.00;;;2.80;99.90;;;;;;5058330;28;20553;-59
2023/10/16 01:26:30;;;;;;;7.27;6.47;;;2.80;99.90;;;;;;5058787;28;20462;-59
2023/10/16 01:28:57;;;;;;;8.37;6.27;;;2.80;99.90;;;;;;5058514;28;20747;-60
2023/10/16 01:31:25;;;;;;;8.40;6.60;;;2.80;99.90;;;;;;5057962;28;20469;-60
2023/10/16 01:33:54;;;;;;;8.30;6.27;;;2.80;99.90;;;;;;5058345;28;20891;-60
2023/10/16 01:36:23;;;;;;;7.83;6.70;;;2.70;99.90;;;;;;5058360;28;20466;-60
2023/10/16 01:38:50;;;;;;;7.87;6.70;;;2.70;99.90;;;;;;5058055;28;20548;-60
2023/10/16 01:41:19;;;;;;;6.93;6.10;;;2.70;99.90;;;;;;5058279;28;20757;-60
2023/10/16 01:43:46;;;;;;;7.87;6.00;;;2.70;99.90;;;;;;5057971;28;20465;-60
2023/10/16 01:46:14;;;;;;;7.73;6.80;;;2.70;99.90;;;;;;5058324;28;20469;-60
2023/10/16 01:48:44;;;;;;;8.40;6.30;;;2.80;99.90;;;;;;5058170;28;20462;-60
2023/10/16 01:51:15;;;;;;;7.60;6.90;;;2.70;99.90;;;;;;5058068;28;20466;-60
2023/10/16 01:53:43;;;;;;;9.10;5.87;;;2.70;99.90;;;;;;5057874;28;20764;-60
2023/10/16 01:56:13;;;;;;;7.07;6.20;;;2.60;99.90;;;;;;5058229;28;20537;-60
2023/10/16 01:58:44;;;;;;;8.00;7.17;;;2.60;99.90;;;;;;5058345;28;20526;-60
2023/10/16 02:01:11;;;;;;;7.67;6.80;;;2.60;99.90;;;;;;5057793;28;20899;-60
2023/10/16 02:03:43;;;;;;;6.90;6.20;;;2.60;99.90;;;;;;5057714;28;20557;-60
2023/10/16 02:06:11;;;;;;;8.50;6.80;;;2.60;99.90;;;;;;5058209;28;20469;-61
2023/10/16 02:08:39;;;;;;;7.07;6.10;;;2.60;99.90;;;;;;5057653;28;20508;-61
2023/10/16 02:11:06;;;;;;;7.00;6.30;;;2.60;99.90;;;;;;5057844;28;20568;-61
2023/10/16 02:13:35;;;;;;;8.40;6.30;;;2.60;99.90;;;;;;5057514;28;20467;-61
2023/10/16 02:16:06;;;;;;;6.67;5.97;;;2.60;99.90;;;;;;5057373;28;20915;-60
2023/10/16 02:18:37;;;;;;;7.13;6.43;;;2.50;99.90;;;;;;5057609;28;20469;-61
2023/10/16 02:21:04;;;;;;;6.03;5.43;;;2.50;99.90;;;;;;5058016;28;20467;-61
2023/10/16 02:23:32;;;;;;;6.73;6.00;;;2.50;99.90;;;;;;5057705;28;20462;-61
2023/10/16 02:26:01;;;;;;;7.00;6.30;;;2.50;99.90;;;;;;5057522;28;20454;-61
2023/10/16 02:28:31;;;;;;;7.83;5.80;;;2.40;99.90;;;;;;5057916;28;20462;-61
2023/10/16 02:31:05;;;;;;;6.90;5.97;;;2.40;99.90;;;;;;5057902;28;20566;-61
2023/10/16 02:33:35;;;;;;;10.70;6.93;;;2.40;99.90;;;;;;5057828;28;20485;-61
2023/10/16 02:36:02;;;;;;;6.03;5.23;;;2.40;99.90;;;;;;5058657;28;20902;-61
2023/10/16 02:38:29;;;;;;;8.57;6.70;;;2.40;99.90;;;;;;5058948;28;20490;-61
2023/10/16 02:41:02;;;;;;;6.53;5.80;;;2.30;99.90;;;;;;5059085;28;20466;-62
2023/10/16 02:43:29;;;;;;;7.20;6.30;;;2.20;99.90;;;;;;5058813;28;20574;-61
2023/10/16 02:46:01;;;;;;;6.80;6.10;;;2.20;99.90;;;;;;5058955;28;20466;-62
2023/10/16 02:48:28;;;;;;;6.50;5.90;;;2.20;99.90;;;;;;5059706;28;20473;-61
2023/10/16 02:50:58;;;;;;;8.63;6.80;;;2.20;99.90;;;;;;5058796;28;20511;-61
2023/10/16 02:53:27;;;;;;;13.23;7.30;;;2.30;99.90;;;;;;5058762;28;20469;-62
2023/10/16 02:56:02;;;;;;;7.87;7.10;;;2.30;99.90;;;;;;5058877;28;20731;-61
2023/10/16 02:58:30;;;;;;;8.93;7.43;;;2.30;99.90;;;;;;5058917;28;20490;-61
2023/10/16 03:00:59;;;;;;;10.50;8.40;;;2.30;99.90;;;;;;5058438;28;20468;-61
2023/10/16 03:03:27;;;;;;;7.53;6.60;;;2.30;99.90;;;;;;5059178;28;20505;-62
2023/10/16 03:05:55;;;;;;;8.70;6.80;;;2.30;99.90;;;;;;5058534;28;20500;-61
2023/10/16 03:08:29;;;;;;;11.13;8.40;;;2.30;99.90;;;;;;5058340;28;20486;-61
2023/10/16 03:10:58;;;;;;;9.13;7.30;;;2.30;99.90;;;;;;5059295;28;20883;-61
2023/10/16 03:13:26;;;;;;;9.20;8.10;;;2.20;99.90;;;;;;5058322;28;20473;-61
2023/10/16 03:15:59;;;;;;;9.13;7.60;;;2.20;99.90;;;;;;5058871;28;20459;-62
2023/10/16 03:18:28;;;;;;;13.20;7.77;;;2.20;99.90;;;;;;5058718;28;20784;-62
2023/10/16 03:21:05;;;;;;;9.00;7.87;;;2.20;99.90;;;;;;5058692;28;20463;-61
2023/10/16 03:23:34;;;;;;;9.23;8.33;;;2.30;99.90;;;;;;5058600;28;20450;-61
2023/10/16 03:26:02;;;;;;;10.33;7.90;;;2.30;99.90;;;;;;5058585;28;20501;-61
2023/10/16 03:28:31;;;;;;;9.27;8.30;;;2.30;99.90;;;;;;5059632;28;20505;-62
2023/10/16 03:31:03;;;;;;;9.47;7.60;;;2.30;99.90;;;;;;5058497;28;20957;-62
2023/10/16 03:33:32;;;;;;;8.33;6.90;;;2.30;99.90;;;;;;5058653;28;20462;-61
2023/10/16 03:36:02;;;;;;;9.67;8.67;;;2.20;99.90;;;;;;5059149;28;20462;-61
2023/10/16 03:38:36;;;;;;;8.23;7.27;;;2.20;99.90;;;;;;5058943;28;20939;-61
2023/10/16 03:41:11;;;;;;;7.50;6.70;;;2.20;99.90;;;;;;5058776;28;20527;-62
2023/10/16 03:43:42;;;;;;;8.07;7.00;;;2.20;99.90;;;;;;5058835;28;20960;-62
2023/10/16 03:46:10;;;;;;;9.00;7.70;;;2.20;99.90;;;;;;5058875;28;20473;-61
2023/10/16 03:48:38;;;;;;;9.00;7.73;;;2.20;99.90;;;;;;5061426;28;20454;-61
2023/10/16 03:51:06;;;;;;;10.33;7.90;;;2.20;99.90;;;;;;5061708;28;20463;-62
2023/10/16 03:53:33;;;;;;;12.27;9.87;;;2.10;99.90;;;;;;5062005;28;20466;-61
2023/10/16 03:56:02;;;;;;;11.33;8.97;;;2.10;99.90;;;;;;5062114;28;20746;-61
2023/10/16 03:58:34;;;;;;;13.50;11.20;;;2.10;99.90;;;;;;5061226;28;20490;-61
2023/10/16 04:01:07;;;;;;;11.67;10.47;;;2.30;99.90;;;;;;5062068;28;20520;-61
2023/10/16 04:03:46;;;;;;;39.57;13.47;;;2.30;99.90;;;;;;5061496;28;20564;-61
2023/10/16 04:06:13;;;;;;;13.70;10.90;;;2.40;99.90;;;;;;5061533;28;20466;-61
2023/10/16 04:08:41;;;;;;;14.00;10.37;;;2.40;99.90;;;;;;5061463;28;20825;-61
2023/10/16 04:11:11;;;;;;;11.90;10.63;;;2.50;99.90;;;;;;5061233;28;20464;-61
2023/10/16 04:13:47;;;;;;;10.80;9.53;;;2.50;99.90;;;;;;5060700;28;20462;-61
2023/10/16 04:16:30;;;;;;;14.97;12.50;;;2.60;99.90;;;;;;5060563;28;20462;-60
2023/10/16 04:19:08;;;;;;;15.10;12.33;;;2.60;99.90;;;;;;5061152;28;20501;-60
2023/10/16 04:21:40;;;;;;;15.83;12.17;;;2.70;99.90;;;;;;5060921;28;20761;-60
2023/10/16 04:24:30;;;;;;;16.37;11.60;;;2.70;99.90;;;;;;5061287;28;20469;-60
2023/10/16 04:27:29;;;;;;;16.57;12.70;;;2.70;99.90;;;;;;5060900;28;20838;-60
2023/10/16 04:29:49;;;;;;;18.27;13.20;;;2.70;99.90;;;;;;5060538;28;20457;-60
2023/10/16 04:32:20;;;;;;;16.53;12.43;;;2.80;99.90;;;;;;5060970;28;20562;-61
2023/10/16 04:34:53;;;;;;;15.87;12.33;;;2.90;99.90;;;;;;5060882;28;20830;-60
2023/10/16 04:37:29;;;;;;;15.70;11.93;;;2.90;99.90;;;;;;5061030;28;20458;-61
2023/10/16 04:43:07;;;;;;;15.40;10.97;;;2.90;99.90;;;;;;5061027;28;20546;-62
2023/10/16 04:48:39;;;;;;;17.57;13.40;;;3.00;99.90;;;;;;5060039;28;20442;-62
2023/10/16 04:51:16;;;;;;;16.93;13.40;;;3.00;99.90;;;;;;5059814;28;20517;-62
2023/10/16 04:54:13;;;;;;;15.80;12.60;;;3.00;99.90;;;;;;5059973;28;20446;-62
2023/10/16 04:57:08;;;;;;;19.33;12.60;;;3.10;99.90;;;;;;5060240;28;20501;-62
2023/10/16 04:59:58;;;;;;;18.87;11.50;;;3.10;99.90;;;;;;5059469;28;20490;-61
2023/10/16 05:02:41;;;;;;;14.47;11.97;;;3.10;99.90;;;;;;5059835;28;20458;-61
2023/10/16 05:08:30;;;;;;;21.90;11.70;;;3.00;99.90;;;;;;5059940;28;20442;-60
2023/10/16 05:11:23;;;;;;;21.13;10.80;;;3.00;99.90;;;;;;5059762;28;20478;-60
2023/10/16 05:13:43;;;;;;;19.20;13.20;;;3.00;99.90;;;;;;5059681;28;20450;-61
2023/10/16 05:19:15;;;;;;;21.67;13.17;;;3.10;99.90;;;;;;5059803;28;20473;-61
2023/10/16 06:14:13;;;;;;;22.90;16.03;;;4.10;99.90;;;;;;5033760;28;20460;-62
2023/10/16 06:16:40;;;;;;;25.77;15.60;;;4.10;99.90;;;;;;5059064;28;20453;-62
2023/10/16 06:19:14;;;;;;;24.83;15.77;;;4.20;99.90;;;;;;5058548;28;20490;-62
2023/10/16 06:21:46;;;;;;;23.93;16.17;;;4.30;99.90;;;;;;5058247;28;20777;-62
2023/10/16 06:24:28;;;;;;;21.03;15.10;;;4.30;99.90;;;;;;5058267;28;20798;-62
2023/10/16 06:26:57;;;;;;;26.23;14.97;;;4.40;99.90;;;;;;5058765;28;20558;-62
2023/10/16 06:29:25;;;;;;;22.73;13.87;;;4.40;99.90;;;;;;5057935;28;20461;-62
2023/10/16 06:31:58;;;;;;;23.93;13.87;;;4.40;99.90;;;;;;5058002;28;20466;-62
2023/10/16 06:34:25;;;;;;;22.63;13.73;;;4.50;99.90;;;;;;5058407;28;20463;-62
2023/10/16 06:36:53;;;;;;;23.77;14.90;;;4.40;99.90;;;;;;5058518;28;20464;-61
2023/10/16 06:39:28;;;;;;;22.90;16.10;;;4.50;99.90;;;;;;5057916;28;20516;-62
2023/10/16 06:41:56;;;;;;;25.00;14.50;;;4.50;99.90;;;;;;5058073;28;20462;-62
2023/10/16 06:44:28;;;;;;;23.47;14.23;;;4.70;99.90;;;;;;5058100;28;20929;-62
2023/10/16 06:46:59;;;;;;;23.10;15.63;;;4.70;99.90;;;;;;5058407;28;20748;-61
2023/10/16 06:49:26;;;;;;;22.07;14.23;;;4.70;99.90;;;;;;5057727;28;20941;-62
2023/10/16 06:51:56;;;;;;;25.50;13.80;;;4.80;99.90;;;;;;5057070;28;20564;-62
2023/10/16 06:54:26;;;;;;;22.87;15.40;;;5.00;99.90;;;;;;5057581;28;20956;-62
2023/10/16 06:56:53;;;;;;;23.23;15.30;;;5.20;99.90;;;;;;5057882;28;20501;-62
2023/10/16 06:59:21;;;;;;;20.70;14.07;;;5.20;99.90;;;;;;5057417;28;20490;-62
2023/10/16 07:01:50;;;;;;;20.30;11.73;;;5.20;99.90;;;;;;5057173;28;20775;-61
2023/10/16 07:04:19;;;;;;;18.43;13.30;;;5.10;99.90;;;;;;5056353;28;20462;-62
2023/10/16 07:06:48;;;;;;;17.10;12.20;;;5.20;99.90;;;;;;5056148;28;20549;-62
2023/10/16 07:09:16;;;;;;;19.37;12.20;;;5.10;99.90;;;;;;5054943;28;20478;-62
2023/10/16 07:11:45;;;;;;;20.27;13.13;;;5.20;99.90;;;;;;5055470;28;20511;-62
2023/10/16 07:14:17;;;;;;;17.00;12.07;;;5.20;99.90;;;;;;5055203;28;20560;-63
2023/10/16 07:16:44;;;;;;;19.20;13.13;;;5.30;99.90;;;;;;5055385;28;20528;-62
2023/10/16 07:19:16;;;;;;;18.77;13.60;;;5.30;99.90;;;;;;5054566;28;20488;-64
2023/10/16 07:21:48;;;;;;;18.13;12.07;;;5.30;99.90;;;;;;5056020;28;20817;-62
2023/10/16 07:24:16;;;;;;;17.20;12.53;;;5.40;99.90;;;;;;5058263;28;20467;-62
2023/10/16 07:26:45;;;;;;;16.00;11.10;;;5.40;99.90;;;;;;5058357;28;20482;-63
2023/10/16 07:29:13;;;;;;;16.80;12.63;;;5.50;99.90;;;;;;5058149;28;20436;-62
2023/10/16 07:31:40;;;;;;;17.50;12.70;;;5.60;99.90;;;;;;5058215;28;20811;-62
2023/10/16 07:34:07;;;;;;;15.20;11.43;;;5.60;99.90;;;;;;5058453;28;20896;-63
2023/10/16 07:36:35;;;;;;;16.13;11.47;;;5.70;99.90;;;;;;5059311;28;20942;-62
2023/10/16 07:39:04;;;;;;;18.30;13.27;;;5.80;99.90;;;;;;5060378;28;20778;-63
2023/10/16 07:41:33;;;;;;;16.07;12.73;;;5.90;99.90;;;;;;5060673;28;20465;-62
2023/10/16 07:44:04;;;;;;;18.03;12.17;;;5.90;99.90;;;;;;5060462;28;20884;-62
2023/10/16 07:46:32;;;;;;;16.87;12.13;;;6.00;99.90;;;;;;5060502;28;20883;-62
2023/10/16 07:49:09;;;;;;;17.10;12.10;;;6.20;99.90;;;;;;5060911;28;20519;-62
2023/10/16 07:51:39;;;;;;;14.87;11.23;;;6.20;99.90;;;;;;5060421;28;20461;-62
2023/10/16 07:54:07;;;;;;;13.83;11.53;;;6.20;99.90;;;;;;5060068;28;20463;-62
2023/10/16 07:56:35;;;;;;;17.53;12.90;;;6.30;99.90;;;;;;5060251;28;20466;-62
2023/10/16 07:59:07;;;;;;;14.20;11.67;;;6.50;99.90;;;;;;5059584;28;20592;-62
2023/10/16 08:01:42;;;;;;;15.77;12.83;;;6.60;99.90;;;;;;5060281;28;20469;-62
2023/10/16 08:04:27;;;;;;;15.97;11.60;;;6.70;99.90;;;;;;5059853;28;20465;-62
2023/10/16 08:06:57;;;;;;;15.90;12.00;;;6.80;99.90;;;;;;5060301;28;20468;-61
2023/10/16 08:09:57;;;;;;;18.07;13.00;;;6.90;99.90;;;;;;5059263;28;20482;-62
2023/10/16 08:12:35;;;;;;;17.10;12.30;;;7.00;99.90;;;;;;5060394;28;20462;-62
2023/10/16 08:15:14;;;;;;;15.57;12.30;;;7.30;99.90;;;;;;5068038;28;20773;-63
2023/10/16 08:17:43;;;;;;;15.30;11.97;;;7.40;99.90;;;;;;5078957;28;20821;-62
2023/10/16 08:20:17;;;;;;;15.17;11.97;;;7.50;99.90;;;;;;5079839;28;20515;-62
2023/10/16 08:22:45;;;;;;;14.50;11.33;;;7.60;99.90;;;;;;5079073;28;20461;-63
2023/10/16 08:25:30;;;;;;;15.00;12.40;;;7.50;99.90;;;;;;5079058;28;20515;-63
2023/10/16 08:28:00;;;;;;;14.47;11.27;;;7.50;99.90;;;;;;5079203;28;20465;-63
2023/10/16 08:30:49;;;;;;;16.07;11.67;;;7.70;99.90;;;;;;5079748;28;20461;-63
2023/10/16 08:33:16;;;;;;;13.43;10.53;;;7.70;99.90;;;;;;5078640;28;20527;-62
2023/10/16 08:35:45;;;;;;;15.00;11.60;;;7.90;99.90;;;;;;5079483;28;20453;-62
2023/10/16 08:38:14;;;;;;;18.07;11.00;;;8.10;99.90;;;;;;5079590;28;20793;-62
2023/10/16 08:40:44;;;;;;;16.20;11.53;;;8.30;99.90;;;;;;5079281;28;20489;-62
2023/10/16 08:43:17;;;;;;;14.20;10.80;;;8.40;99.90;;;;;;5079398;28;20867;-63
2023/10/16 08:45:49;;;;;;;15.17;11.00;;;8.30;99.90;;;;;;5078746;28;20507;-63
2023/10/16 08:48:18;;;;;;;18.30;12.07;;;8.30;99.90;;;;;;5078786;28;20472;-63
2023/10/16 08:50:57;;;;;;;16.23;12.10;;;8.40;99.90;;;;;;5069439;28;20494;-63
2023/10/16 08:53:33;;;;;;;17.03;11.83;;;8.70;99.90;;;;;;5058502;28;20469;-63
2023/10/16 08:56:03;;;;;;;16.47;12.13;;;9.00;99.90;;;;;;5059069;28;20903;-63
2023/10/16 08:58:40;;;;;;;15.63;10.97;;;9.10;99.90;;;;;;5066570;28;20537;-63
2023/10/16 09:01:12;;;;;;;14.33;11.17;;;9.40;99.90;;;;;;5077971;28;20874;-64
2023/10/16 09:03:42;;;;;;;14.43;11.23;;;9.20;99.90;;;;;;5077968;28;20526;-63
2023/10/16 09:06:13;;;;;;;18.30;11.00;;;9.50;71.30;;;;;;5078883;28;20473;-63
2023/10/16 09:08:41;;;;;;;14.47;10.70;;;9.50;43.40;;;;;;5077922;28;20914;-63
2023/10/16 09:11:08;;;;;;;14.43;11.33;;;9.60;79.30;;;;;;5078411;28;20461;-63
2023/10/16 09:13:38;;;;;;;15.83;10.73;;;9.90;1.00;;;;;;5078157;28;20469;-62
2023/10/16 09:16:13;;;;;;;14.53;10.40;;;10.10;1.00;;;;;;5078325;28;20872;-63
2023/10/16 09:18:40;;;;;;;19.40;12.93;;;10.50;1.00;;;;;;5078674;28;20461;-63
2023/10/16 09:21:15;;;;;;;13.60;11.07;;;10.60;99.90;;;;;;5078633;28;20469;-63
2023/10/16 09:23:51;;;;;;;12.70;9.60;;;10.90;99.90;;;;;;5078433;28;20461;-62
2023/10/16 09:26:19;;;;;;;14.20;10.47;;;11.20;99.90;;;;;;5078721;28;20453;-63
2023/10/16 09:28:49;;;;;;;11.63;10.43;;;11.10;99.90;;;;;;5077542;28;20464;-62
2023/10/16 09:31:19;;;;;;;11.97;10.00;;;11.20;99.90;;;;;;5077784;28;20774;-62
2023/10/16 09:33:48;;;;;;;15.17;10.77;;;11.50;99.90;;;;;;5077777;28;20461;-62
2023/10/16 09:36:19;;;;;;;15.90;10.33;;;11.70;99.90;;;;;;5078109;28;20462;-62
2023/10/16 09:38:51;;;;;;;12.43;11.13;;;11.20;1.00;;;;;;5078069;28;20957;-62
2023/10/16 09:44:09;;;;;;;14.27;10.87;;;11.50;34.10;;;;;;5075723;28;20436;-61
2023/10/16 09:46:54;;;;;;;12.40;10.00;;;11.60;29.80;;;;;;5076700;28;20555;-62
2023/10/16 09:49:25;;;;;;;12.67;10.40;;;11.60;1.00;;;;;;5077801;28;20882;-62
2023/10/16 09:51:59;;;;;;;13.20;10.10;;;11.80;9.00;;;;;;5077849;28;20495;-61
2023/10/16 09:54:29;;;;;;;11.47;10.00;;;11.90;2.20;;;;;;5077748;28;20956;-61
2023/10/16 09:56:59;;;;;;;10.90;9.53;;;12.10;1.00;;;;;;5077633;28;20496;-61
2023/10/16 09:59:32;;;;;;;14.00;11.10;;;12.10;1.00;;;;;;5077413;28;20560;-60
2023/10/16 10:02:09;;;;;;;11.40;9.33;;;12.40;1.00;;;;;;5072684;28;20477;-61
2023/10/16 10:04:38;;;;;;;11.70;9.60;;;12.90;1.00;;;;;;5075688;28;20861;-60
2023/10/16 10:07:19;;;;;;;11.43;10.30;;;13.00;1.00;;;;;;5077545;28;20869;-60
2023/10/16 10:09:49;;;;;;;12.07;10.23;;;13.40;1.00;;;;;;5076513;28;20583;-60
2023/10/16 10:12:42;;;;;;;12.63;10.90;;;13.60;1.00;;;;;;5077085;28;20465;-60
2023/10/16 10:15:23;;;;;;;14.27;9.23;;;13.40;1.00;;;;;;5077485;28;20461;-60
2023/10/16 10:17:55;;;;;;;13.03;10.07;;;13.50;1.00;;;;;;5077259;28;20559;-60
2023/10/16 10:20:26;;;;;;;12.20;10.80;;;13.70;1.00;;;;;;5077256;28;20489;-60
2023/10/16 10:22:59;;;;;;;11.23;9.40;;;13.40;1.00;;;;;;5077724;28;20804;-60
2023/10/16 10:25:35;;;;;;;11.43;9.93;;;13.50;1.00;;;;;;5077094;28;20463;-60
2023/10/16 10:28:17;;;;;;;11.37;9.90;;;13.70;1.00;;;;;;5077181;28;20551;-60
2023/10/16 10:30:45;;;;;;;11.47;9.40;;;14.10;1.00;;;;;;5077302;28;20483;-60
2023/10/16 10:33:36;;;;;;;10.13;9.10;;;13.50;99.90;;;;;;5077471;28;20894;-60
2023/10/16 10:36:39;;;;;;;11.20;8.80;;;13.10;99.90;;;;;;5077296;28;20898;-60
2023/10/16 10:39:39;;;;;;;6.00;5.40;;;13.80;99.90;;;;;;4995504;28;20499;-60
2023/10/16 10:42:16;;;;;;;5.67;3.30;;;14.10;99.90;;;;;;4994275;28;20876;-59
2023/10/16 10:44:53;;;;;;;3.53;3.20;;;13.40;99.90;;;;;;5056176;28;20567;-59
2023/10/16 10:47:23;;;;;;;4.10;2.57;;;13.90;99.90;;;;;;5075263;28;20908;-59
2023/10/16 10:49:58;;;;;;;5.43;3.27;;;14.30;99.90;;;;;;5072193;28;20473;-60
2023/10/16 10:52:30;;;;;;;4.47;2.43;;;14.10;10.40;;;;;;5076877;28;20563;-60
2023/10/16 10:54:58;;;;;;;3.90;2.40;;;14.50;8.10;;;;;;5077179;28;20869;-60
2023/10/16 10:57:26;;;;;;;5.10;2.60;;;14.20;1.00;;;;;;5079115;28;20890;-60
2023/10/16 10:59:56;;;;;;;4.67;2.67;;;14.90;1.00;;;;;;5080933;28;20579;-60
2023/10/16 11:02:48;;;;;;;4.07;2.50;;;14.50;1.00;;;;;;5080868;28;20486;-60
2023/10/16 11:05:30;;;;;;;4.37;1.97;;;14.40;1.00;;;;;;5080925;28;20436;-60
2023/10/16 11:08:22;;;;;;;3.60;2.20;;;14.50;1.00;;;;;;5080800;28;20461;-59
2023/10/16 11:10:50;;;;;;;3.70;2.97;;;14.90;1.00;;;;;;5080902;28;20467;-60
2023/10/16 11:13:21;;;;;;;4.73;2.30;;;14.10;1.00;;;;;;5080110;28;20455;-60
2023/10/16 11:15:52;;;;;;;3.50;2.63;;;14.60;1.00;;;;;;5079569;28;20461;-60
2023/10/16 11:18:20;;;;;;;3.80;2.60;;;14.30;1.00;;;;;;5080843;28;20958;-60
2023/10/16 11:20:53;;;;;;;3.17;2.63;;;14.80;1.00;;;;;;5080560;28;20946;-60
2023/10/16 11:23:25;;;;;;;3.50;2.30;;;15.20;1.00;;;;;;5080891;28;20464;-60
2023/10/16 11:25:55;;;;;;;3.47;2.70;;;14.40;1.00;;;;;;5080729;28;20563;-60
2023/10/16 11:28:28;;;;;;;3.07;2.33;;;13.20;1.00;;;;;;5080719;28;20514;-59
2023/10/16 11:30:57;;;;;;;4.43;2.53;;;13.10;1.00;;;;;;5080820;28;20467;-59
2023/10/16 11:33:34;;;;;;;4.20;3.33;;;13.00;1.00;;;;;;5080001;28;20814;-60
2023/10/16 11:36:07;;;;;;;3.17;2.80;;;13.30;1.00;;;;;;5080176;28;20559;-60
2023/10/16 11:38:34;;;;;;;3.93;3.23;;;13.10;1.00;;;;;;5080210;28;20460;-60
2023/10/16 11:41:06;;;;;;;4.20;3.10;;;13.20;1.00;;;;;;5080265;28;20559;-61
2023/10/16 11:43:38;;;;;;;6.30;3.70;;;12.90;1.00;;;;;;5079710;28;20461;-61
2023/10/16 11:46:27;;;;;;;7.80;5.90;;;12.90;1.00;;;;;;5079646;28;20467;-61
2023/10/16 11:48:57;;;;;;;5.37;3.60;;;12.20;1.00;;;;;;5080001;28;20502;-61
2023/10/16 11:51:27;;;;;;;4.10;3.23;;;12.20;1.00;;;;;;5077573;28;20474;-61
2023/10/16 11:53:59;;;;;;;8.00;3.67;;;12.40;1.00;;;;;;5075057;28;20473;-61
2023/10/16 11:56:27;;;;;;;4.23;3.00;;;12.30;1.00;;;;;;5078513;28;20515;-61
2023/10/16 11:58:55;;;;;;;6.20;3.53;;;12.10;1.00;;;;;;5078452;28;20461;-61
2023/10/16 12:01:25;;;;;;;7.07;4.07;;;12.20;1.00;;;;;;5077980;28;20925;-61
2023/10/16 12:03:53;;;;;;;7.43;5.40;;;12.40;1.00;;;;;;5077779;28;20453;-61
2023/10/16 12:06:20;;;;;;;8.47;4.73;;;11.90;1.00;;;;;;5077861;28;20940;-61
2023/10/16 12:08:49;;;;;;;4.70;3.90;;;11.60;1.00;;;;;;5076601;28;20477;-61
2023/10/16 12:11:16;;;;;;;5.13;3.90;;;12.20;18.10;;;;;;5078004;28;20503;-61
2023/10/16 12:13:43;;;;;;;5.93;4.53;;;12.40;1.00;;;;;;5078211;28;20507;-61
2023/10/16 12:16:11;;;;;;;6.93;4.40;;;12.70;1.00;;;;;;5076936;28;20465;-61
2023/10/16 12:18:38;;;;;;;5.47;4.50;;;12.90;1.00;;;;;;5076909;28;20968;-61
2023/10/16 12:21:06;;;;;;;6.30;3.70;;;12.90;1.00;;;;;;5077689;28;21011;-61
2023/10/16 12:23:36;;;;;;;4.13;3.10;;;13.30;1.00;;;;;;5077824;28;20496;-61
2023/10/16 12:26:07;;;;;;;3.40;3.10;;;13.30;1.00;;;;;;5077661;28;20497;-62
2023/10/16 12:28:34;;;;;;;3.63;3.00;;;13.40;1.00;;;;;;5077558;28;20467;-61
2023/10/16 12:31:03;;;;;;;5.47;3.40;;;13.00;1.00;;;;;;5078005;28;20756;-62
2023/10/16 12:33:31;;;;;;;6.57;3.83;;;12.80;1.00;;;;;;5079229;28;20462;-62
2023/10/16 12:36:01;;;;;;;5.87;3.60;;;12.60;1.00;;;;;;5078964;28;20453;-62
2023/10/16 12:38:29;;;;;;;4.60;3.73;;;12.20;1.00;;;;;;5079397;28;20544;-63
2023/10/16 12:40:59;;;;;;;6.53;3.33;;;11.90;1.00;;;;;;5078965;28;20496;-62
2023/10/16 12:43:29;;;;;;;5.50;3.10;;;11.70;9.60;;;;;;5078532;28;20504;-62
2023/10/16 12:45:57;;;;;;;6.20;3.10;;;11.60;59.20;;;;;;5078744;28;20457;-62
2023/10/16 12:48:29;;;;;;;6.03;3.20;;;12.00;99.90;;;;;;5078369;28;20443;-62
2023/10/16 12:50:59;;;;;;;6.50;3.57;;;12.20;31.20;;;;;;5079109;28;20467;-62
2023/10/16 12:53:28;;;;;;;6.63;3.17;;;12.40;37.80;;;;;;5078556;28;20747;-62
2023/10/16 12:55:58;;;;;;;4.03;2.73;;;12.50;25.00;;;;;;5078706;28;20461;-62
2023/10/16 12:58:28;;;;;;;5.27;3.60;;;12.80;54.60;;;;;;5078849;28;20474;-60
2023/10/16 13:00:58;;;;;;;8.13;4.50;;;12.40;9.60;;;;;;5078776;28;20533;-61
2023/10/16 13:03:26;;;;;;;4.07;3.00;;;12.10;6.90;;;;;;5078516;28;20940;-61
2023/10/16 13:05:53;;;;;;;30.23;10.03;;;12.20;24.60;;;;;;5078370;28;20885;-61
2023/10/16 13:08:21;;;;;;;11.60;6.37;;;11.90;1.30;;;;;;5078547;28;20469;-60
2023/10/16 13:10:51;;;;;;;6.10;3.10;;;11.90;8.00;;;;;;5078655;28;20453;-60
2023/10/16 13:13:21;;;;;;;7.37;3.40;;;12.00;1.00;;;;;;5078517;28;20450;-60
2023/10/16 13:15:54;;;;;;;3.90;2.77;;;12.40;21.90;;;;;;5076945;28;20484;-60
2023/10/16 13:18:27;;;;;;;3.80;2.23;;;13.00;15.10;;;;;;5078286;28;20849;-60
2023/10/16 13:21:04;;;;;;;3.73;2.60;;;13.30;1.00;;;;;;5078005;28;20489;-60
2023/10/16 13:23:36;;;;;;;7.63;3.70;;;13.40;1.00;;;;;;5077902;28;20773;-61
2023/10/16 13:26:07;;;;;;;4.70;3.03;;;13.30;1.00;;;;;;5077811;28;20493;-60
2023/10/16 13:28:40;;;;;;;4.07;2.67;;;13.10;1.00;;;;;;5078409;28;20887;-61
2023/10/16 13:31:10;;;;;;;4.70;2.73;;;13.50;1.00;;;;;;5078100;28;20458;-61
2023/10/16 13:33:41;;;;;;;4.23;2.83;;;13.60;1.00;;;;;;5077794;28;20461;-61
2023/10/16 13:36:11;;;;;;;3.70;3.00;;;13.10;1.00;;;;;;5077875;28;20472;-61
2023/10/16 13:38:39;;;;;;;6.03;2.77;;;12.40;1.00;;;;;;5078203;28;20464;-61
2023/10/16 13:41:17;;;;;;;4.43;2.97;;;12.00;1.00;;;;;;5077767;28;20489;-61
2023/10/16 13:43:46;;;;;;;8.00;4.63;;;11.80;1.00;;;;;;5077578;28;20564;-61
2023/10/16 13:46:15;;;;;;;3.80;2.97;;;12.00;1.00;;;;;;5075533;28;20469;-62
2023/10/16 13:48:47;;;;;;;5.73;3.10;;;11.90;1.00;;;;;;5077647;28;20528;-61
2023/10/16 13:51:16;;;;;;;4.50;2.60;;;12.00;1.00;;;;;;5078089;28;20548;-62
2023/10/16 13:53:46;;;;;;;3.50;2.70;;;12.20;1.00;;;;;;5077600;28;20457;-62
2023/10/16 13:56:16;;;;;;;8.73;2.63;;;12.00;1.00;;;;;;5077838;28;20813;-62
2023/10/16 13:58:45;;;;;;;4.90;4.00;;;11.90;1.00;;;;;;5077925;28;20515;-62
2023/10/16 14:01:14;;;;;;;6.30;2.70;;;11.80;1.00;;;;;;5077364;28;20560;-62
2023/10/16 14:03:44;;;;;;;5.23;3.47;;;11.90;1.00;;;;;;5077743;28;20464;-62
2023/10/16 14:06:22;;;;;;;7.60;4.60;;;11.90;1.00;;;;;;5077458;28;20461;-62
2023/10/16 14:08:49;;;;;;;8.43;5.07;;;12.00;1.00;;;;;;5077430;28;20488;-62
2023/10/16 14:11:17;;;;;;;8.57;3.53;;;12.00;1.00;;;;;;5077726;28;20485;-61
2023/10/16 14:13:45;;;;;;;5.27;3.57;;;12.20;1.00;;;;;;5076775;28;20812;-62
2023/10/16 14:16:17;;;;;;;6.17;4.17;;;11.80;1.00;;;;;;5076119;28;20497;-62
2023/10/16 14:18:45;;;;;;;5.87;3.20;;;11.90;1.00;;;;;;5076665;28;20928;-62